Time;durP1;ratioP1;P1;durP2;ratioP2;P2;SDS_P1;SDS_P2;PMS_P1;PMS_P2;Temp;Humidity;BMP_temperature;BMP_pressure;BME280_temperature;BME280_humidity;BME280_pressure;Samples;Min_cycle;Max_cycle;Signal;HPM_P1;HPM_P2
2022/12/09 00:00:26;;;;;;;12.13;6.10;;;;;;;;;;7386993;19;20012;-73
2022/12/09 00:02:52;;;;;;;13.18;6.22;;;;;;;;;;7384936;19;19999;-74
2022/12/09 00:05:17;;;;;;;12.70;6.22;;;;;;;;;;7387142;19;20002;-74
2022/12/09 00:07:42;;;;;;;12.52;6.20;;;;;;;;;;7389935;19;20002;-74
2022/12/09 00:10:08;;;;;;;10.57;5.50;;;;;;;;;;7391823;19;19999;-74
2022/12/09 00:12:33;;;;;;;11.60;5.50;;;;;;;;;;7391012;19;20054;-74
2022/12/09 00:14:59;;;;;;;11.48;6.13;;;;;;;;;;7391681;19;20003;-74
2022/12/09 00:17:24;;;;;;;11.43;6.05;;;;;;;;;;7390401;19;20410;-74
2022/12/09 00:19:49;;;;;;;13.98;6.60;;;;;;;;;;7391411;19;20361;-74
2022/12/09 00:22:15;;;;;;;12.27;6.00;;;;;;;;;;7390072;19;20002;-74
2022/12/09 00:24:40;;;;;;;11.63;5.47;;;;;;;;;;7390848;19;20002;-74
2022/12/09 00:27:05;;;;;;;11.57;6.10;;;;;;;;;;7390247;19;20033;-74
2022/12/09 00:29:31;;;;;;;13.68;5.95;;;;;;;;;;7391274;19;20015;-74
2022/12/09 00:31:56;;;;;;;14.30;6.63;;;;;;;;;;7391181;19;19991;-74
2022/12/09 00:34:22;;;;;;;12.13;6.32;;;;;;;;;;7390433;19;19999;-74
2022/12/09 00:36:47;;;;;;;11.68;6.05;;;;;;;;;;7390195;19;20026;-74
2022/12/09 00:39:12;;;;;;;15.23;6.30;;;;;;;;;;7391048;19;20014;-74
2022/12/09 00:41:38;;;;;;;12.13;6.18;;;;;;;;;;7389981;19;20483;-74
2022/12/09 00:44:04;;;;;;;15.15;7.28;;;;;;;;;;7390354;19;20002;-73
2022/12/09 00:46:29;;;;;;;14.40;6.80;;;;;;;;;;7388775;19;20001;-74
2022/12/09 00:48:55;;;;;;;13.85;7.20;;;;;;;;;;7392010;19;20492;-74
2022/12/09 00:51:23;;;;;;;14.32;6.35;;;;;;;;;;7390693;19;20002;-74
2022/12/09 00:53:52;;;;;;;13.32;6.70;;;;;;;;;;7390025;19;20002;-74
2022/12/09 00:56:19;;;;;;;13.98;6.32;;;;;;;;;;7389814;19;20415;-74
2022/12/09 00:58:44;;;;;;;12.27;6.80;;;;;;;;;;7399463;19;20070;-72
2022/12/09 01:01:09;;;;;;;12.82;5.93;;;;;;;;;;7396875;19;20016;-74
2022/12/09 01:03:35;;;;;;;13.38;6.32;;;;;;;;;;7397925;19;19995;-74
2022/12/09 01:06:00;;;;;;;15.38;6.68;;;;;;;;;;7396453;19;20515;-74
2022/12/09 01:08:25;;;;;;;15.18;7.22;;;;;;;;;;7400432;19;20019;-74
2022/12/09 01:10:51;;;;;;;15.13;6.72;;;;;;;;;;7397558;19;20005;-74
2022/12/09 01:13:16;;;;;;;15.07;7.07;;;;;;;;;;7397034;19;20002;-73
2022/12/09 01:15:42;;;;;;;11.93;6.47;;;;;;;;;;7396327;19;20365;-74
2022/12/09 01:18:08;;;;;;;15.80;6.93;;;;;;;;;;7394849;19;20491;-74
2022/12/09 01:20:34;;;;;;;13.27;6.53;;;;;;;;;;7397003;19;20481;-73
2022/12/09 01:23:00;;;;;;;14.18;7.43;;;;;;;;;;7396561;19;19998;-74
2022/12/09 01:25:25;;;;;;;13.90;6.93;;;;;;;;;;7397160;19;20389;-74
2022/12/09 01:27:50;;;;;;;13.98;6.88;;;;;;;;;;7394614;19;19998;-74
2022/12/09 01:30:16;;;;;;;12.13;7.10;;;;;;;;;;7397409;19;20006;-74
2022/12/09 01:32:42;;;;;;;11.68;6.82;;;;;;;;;;7396456;19;20028;-74
2022/12/09 01:35:08;;;;;;;14.52;6.97;;;;;;;;;;7397322;19;19990;-74
2022/12/09 01:37:35;;;;;;;13.77;6.78;;;;;;;;;;7395233;19;20001;-74
2022/12/09 01:40:03;;;;;;;15.10;7.50;;;;;;;;;;7397830;19;20492;-73
2022/12/09 01:42:28;;;;;;;16.02;7.20;;;;;;;;;;7394343;19;20065;-74
2022/12/09 01:45:18;;;;;;;17.98;7.97;;;;;;;;;;7398339;19;19990;-74
2022/12/09 01:47:45;;;;;;;12.45;6.70;;;;;;;;;;7388589;19;20015;-74
2022/12/09 01:50:10;;;;;;;13.80;7.20;;;;;;;;;;7401292;19;20015;-73
2022/12/09 01:52:35;;;;;;;14.25;7.05;;;;;;;;;;7395507;19;19997;-73
2022/12/09 01:55:01;;;;;;;15.77;6.60;;;;;;;;;;7396328;19;20514;-74
2022/12/09 01:57:26;;;;;;;12.77;7.18;;;;;;;;;;7394600;19;20023;-74
2022/12/09 01:59:52;;;;;;;14.38;6.57;;;;;;;;;;7396075;19;20062;-74
2022/12/09 02:02:18;;;;;;;16.27;7.32;;;;;;;;;;7394026;19;20010;-73
2022/12/09 02:04:47;;;;;;;15.73;7.18;;;;;;;;;;7395473;19;20337;-74
2022/12/09 02:07:12;;;;;;;17.55;7.65;;;;;;;;;;7394482;19;20013;-74
2022/12/09 02:09:38;;;;;;;16.75;8.32;;;;;;;;;;7396048;19;19999;-74
2022/12/09 02:12:22;;;;;;;14.15;7.97;;;;;;;;;;7395618;19;20070;-74
2022/12/09 02:15:04;;;;;;;17.90;8.30;;;;;;;;;;7397720;19;19999;-74
2022/12/09 02:17:43;;;;;;;14.32;8.27;;;;;;;;;;7393938;19;20072;-74
2022/12/09 02:20:08;;;;;;;15.48;7.20;;;;;;;;;;7394208;19;20046;-74
2022/12/09 02:22:42;;;;;;;14.68;7.88;;;;;;;;;;7390910;19;19999;-75
2022/12/09 02:25:28;;;;;;;18.90;9.30;;;;;;;;;;7396069;19;19999;-73
2022/12/09 02:28:28;;;;;;;17.85;8.57;;;;;;;;;;7393001;19;20005;-73
2022/12/09 02:31:01;;;;;;;20.23;8.82;;;;;;;;;;7395182;19;19998;-74
2022/12/09 02:33:44;;;;;;;16.08;8.45;;;;;;;;;;7394603;19;19991;-74
2022/12/09 02:36:17;;;;;;;17.88;8.93;;;;;;;;;;7394399;19;20362;-74
2022/12/09 02:38:43;;;;;;;19.70;9.25;;;;;;;;;;7394963;19;19991;-74
2022/12/09 02:41:15;;;;;;;16.85;8.52;;;;;;;;;;7392851;19;20450;-75
2022/12/09 02:43:44;;;;;;;16.50;8.55;;;;;;;;;;7394214;19;20071;-75
2022/12/09 02:46:11;;;;;;;19.67;9.02;;;;;;;;;;7392990;19;20022;-74
2022/12/09 02:48:45;;;;;;;17.38;8.20;;;;;;;;;;7388778;19;20010;-74
2022/12/09 02:51:15;;;;;;;15.70;8.70;;;;;;;;;;7392910;19;20005;-74
2022/12/09 02:53:43;;;;;;;15.93;7.93;;;;;;;;;;7393735;19;20028;-75
2022/12/09 02:56:09;;;;;;;14.48;7.78;;;;;;;;;;7394078;19;20395;-74
2022/12/09 02:58:34;;;;;;;15.52;8.00;;;;;;;;;;7392483;19;20036;-74
2022/12/09 03:01:00;;;;;;;17.77;8.48;;;;;;;;;;7392128;19;20035;-74
2022/12/09 03:03:27;;;;;;;16.83;8.68;;;;;;;;;;7396707;19;20058;-74
2022/12/09 03:06:12;;;;;;;14.85;8.10;;;;;;;;;;7396976;19;20002;-74
2022/12/09 03:08:43;;;;;;;21.33;8.38;;;;;;;;;;7393960;19;19999;-75
2022/12/09 03:11:14;;;;;;;17.87;8.20;;;;;;;;;;7393840;19;20006;-73
2022/12/09 03:14:10;;;;;;;17.02;8.48;;;;;;;;;;7393190;19;20020;-73
2022/12/09 03:16:38;;;;;;;14.93;8.02;;;;;;;;;;7392715;19;20009;-73
2022/12/09 03:19:09;;;;;;;16.73;8.43;;;;;;;;;;7393816;19;19999;-73
2022/12/09 03:21:39;;;;;;;18.63;9.07;;;;;;;;;;7391053;19;20002;-75
2022/12/09 03:24:08;;;;;;;19.75;9.43;;;;;;;;;;7392477;19;20007;-73
2022/12/09 03:26:37;;;;;;;18.38;9.02;;;;;;;;;;7392353;19;19999;-73
2022/12/09 03:29:07;;;;;;;19.90;9.77;;;;;;;;;;7393038;19;20360;-73
2022/12/09 03:31:35;;;;;;;18.02;9.38;;;;;;;;;;7392989;19;20023;-72
2022/12/09 03:34:05;;;;;;;19.17;9.23;;;;;;;;;;7392452;19;20010;-73
2022/12/09 03:36:36;;;;;;;18.02;9.43;;;;;;;;;;7392193;19;20003;-75
2022/12/09 03:39:05;;;;;;;17.88;9.48;;;;;;;;;;7392461;19;20023;-73
2022/12/09 03:41:32;;;;;;;17.75;9.25;;;;;;;;;;7396498;19;20005;-74
2022/12/09 03:44:11;;;;;;;20.85;9.15;;;;;;;;;;7392117;19;20002;-74
2022/12/09 03:46:36;;;;;;;18.33;9.00;;;;;;;;;;7391980;19;20010;-73
2022/12/09 03:49:02;;;;;;;20.17;9.82;;;;;;;;;;7387824;19;20006;-75
2022/12/09 03:51:38;;;;;;;16.02;9.23;;;;;;;;;;7396468;19;20018;-74
2022/12/09 03:54:15;;;;;;;18.70;9.00;;;;;;;;;;7391814;19;20508;-74
2022/12/09 03:56:44;;;;;;;19.63;9.85;;;;;;;;;;7391614;19;20002;-74
2022/12/09 03:59:13;;;;;;;16.35;8.93;;;;;;;;;;7392246;19;20023;-74
2022/12/09 04:01:40;;;;;;;21.23;10.20;;;;;;;;;;7391177;19;20033;-74
2022/12/09 04:04:07;;;;;;;22.80;10.70;;;;;;;;;;7391276;19;20007;-74
2022/12/09 04:06:32;;;;;;;21.48;10.70;;;;;;;;;;7393166;19;20066;-74
2022/12/09 04:08:57;;;;;;;23.42;11.27;;;;;;;;;;7392388;19;20032;-74
2022/12/09 04:11:23;;;;;;;17.63;9.55;;;;;;;;;;7392077;19;20344;-74
2022/12/09 04:13:48;;;;;;;19.80;10.43;;;;;;;;;;7391124;19;19999;-73
2022/12/09 04:16:13;;;;;;;21.05;10.10;;;;;;;;;;7391297;19;20491;-74
2022/12/09 04:18:38;;;;;;;25.42;10.57;;;;;;;;;;7391648;19;20003;-74
2022/12/09 04:21:08;;;;;;;19.98;10.25;;;;;;;;;;7391197;19;20009;-74
2022/12/09 04:23:34;;;;;;;24.58;10.68;;;;;;;;;;7390898;19;20029;-73
2022/12/09 04:25:59;;;;;;;19.98;10.10;;;;;;;;;;7391096;19;19995;-73
2022/12/09 04:28:24;;;;;;;23.75;10.73;;;;;;;;;;7391441;19;20016;-73
2022/12/09 04:30:50;;;;;;;21.92;11.52;;;;;;;;;;7390178;19;20026;-74
2022/12/09 04:33:15;;;;;;;24.45;11.13;;;;;;;;;;7393663;19;20022;-74
2022/12/09 04:35:40;;;;;;;20.90;10.88;;;;;;;;;;7398963;19;20033;-73
2022/12/09 04:38:06;;;;;;;22.25;11.07;;;;;;;;;;7395682;19;20005;-73
2022/12/09 04:40:31;;;;;;;25.95;12.77;;;;;;;;;;7398666;19;19998;-73
2022/12/09 04:42:57;;;;;;;25.02;11.45;;;;;;;;;;7394797;19;20405;-73
2022/12/09 04:45:22;;;;;;;21.80;12.02;;;;;;;;;;7398771;19;19995;-74
2022/12/09 04:47:47;;;;;;;28.55;12.07;;;;;;;;;;7395971;19;20010;-74
2022/12/09 04:50:13;;;;;;;24.23;12.55;;;;;;;;;;7392895;19;20498;-75
2022/12/09 04:52:38;;;;;;;22.08;10.93;;;;;;;;;;7396476;19;19991;-75
2022/12/09 04:55:04;;;;;;;23.75;12.10;;;;;;;;;;7398402;19;20464;-74
2022/12/09 04:57:29;;;;;;;23.52;12.10;;;;;;;;;;7394366;19;19990;-73
2022/12/09 04:59:55;;;;;;;21.17;11.35;;;;;;;;;;7399097;19;20448;-73
2022/12/09 05:02:20;;;;;;;26.38;11.88;;;;;;;;;;7393860;19;20003;-73
2022/12/09 05:04:46;;;;;;;22.15;10.20;;;;;;;;;;7397712;19;19997;-75
2022/12/09 05:07:12;;;;;;;20.58;10.57;;;;;;;;;;7394456;19;20528;-73
2022/12/09 05:09:37;;;;;;;23.55;10.20;;;;;;;;;;7397861;19;19994;-73
2022/12/09 05:12:03;;;;;;;21.38;10.23;;;;;;;;;;7399319;19;20516;-74
2022/12/09 05:14:28;;;;;;;22.85;11.60;;;;;;;;;;7396713;19;19994;-73
2022/12/09 05:16:53;;;;;;;24.30;11.38;;;;;;;;;;7396053;19;19994;-74
2022/12/09 05:19:19;;;;;;;20.23;10.63;;;;;;;;;;7397152;19;20001;-74
2022/12/09 05:21:44;;;;;;;21.73;10.07;;;;;;;;;;7395677;19;19995;-74
2022/12/09 05:24:10;;;;;;;23.80;10.68;;;;;;;;;;7394843;19;19995;-75
2022/12/09 05:26:36;;;;;;;23.73;10.68;;;;;;;;;;7396366;19;19994;-75
2022/12/09 05:29:01;;;;;;;21.20;10.40;;;;;;;;;;7396966;19;20511;-72
2022/12/09 05:31:26;;;;;;;22.38;10.00;;;;;;;;;;7397794;19;19989;-74
2022/12/09 05:33:52;;;;;;;22.15;9.98;;;;;;;;;;7396040;19;20341;-73
2022/12/09 05:36:28;;;;;;;18.38;9.25;;;;;;;;;;7396376;19;20076;-73
2022/12/09 05:38:54;;;;;;;24.30;9.98;;;;;;;;;;7395182;19;19994;-75
2022/12/09 05:41:21;;;;;;;27.08;9.93;;;;;;;;;;7395911;19;20003;-75
2022/12/09 05:43:47;;;;;;;18.95;10.38;;;;;;;;;;7394991;19;20006;-74
2022/12/09 05:46:13;;;;;;;21.63;10.30;;;;;;;;;;7397935;19;19998;-74
2022/12/09 05:48:39;;;;;;;21.13;9.73;;;;;;;;;;7396611;19;20059;-74
2022/12/09 05:51:15;;;;;;;21.27;10.40;;;;;;;;;;7392394;19;20014;-74
2022/12/09 05:53:40;;;;;;;21.88;10.60;;;;;;;;;;7395558;19;20034;-74
2022/12/09 05:56:06;;;;;;;20.13;9.63;;;;;;;;;;7395610;19;20321;-74
2022/12/09 05:58:32;;;;;;;22.40;9.95;;;;;;;;;;7396226;19;20006;-74
2022/12/09 06:01:04;;;;;;;24.70;10.75;;;;;;;;;;7395566;19;20058;-74
2022/12/09 06:03:30;;;;;;;20.75;10.23;;;;;;;;;;7395895;19;19999;-74
2022/12/09 06:05:55;;;;;;;23.23;11.02;;;;;;;;;;7394391;19;20352;-74
2022/12/09 06:08:20;;;;;;;19.50;10.02;;;;;;;;;;7395854;19;20398;-74
2022/12/09 06:10:46;;;;;;;24.20;12.00;;;;;;;;;;7395979;19;20009;-74
2022/12/09 06:13:12;;;;;;;24.88;10.98;;;;;;;;;;7394889;19;19999;-74
2022/12/09 06:15:38;;;;;;;24.85;11.40;;;;;;;;;;7396007;19;20007;-74
2022/12/09 06:18:03;;;;;;;25.38;11.02;;;;;;;;;;7397285;19;20003;-74
2022/12/09 06:20:29;;;;;;;24.30;10.60;;;;;;;;;;7395459;19;19995;-75
2022/12/09 06:22:54;;;;;;;27.38;11.45;;;;;;;;;;7393080;19;19994;-74
2022/12/09 06:25:19;;;;;;;24.77;10.73;;;;;;;;;;7394935;19;20066;-73
2022/12/09 06:27:45;;;;;;;25.48;12.50;;;;;;;;;;7392622;19;20002;-75
2022/12/09 06:30:10;;;;;;;24.40;12.10;;;;;;;;;;7395054;19;20005;-74
2022/12/09 06:32:35;;;;;;;26.17;11.38;;;;;;;;;;7394185;19;20002;-74
2022/12/09 06:35:01;;;;;;;22.92;11.85;;;;;;;;;;7395130;19;20116;-74
2022/12/09 06:37:26;;;;;;;14.27;6.63;;;;;;;;;;7396410;19;20016;-74
2022/12/09 06:39:52;;;;;;;18.80;7.68;;;;;;;;;;7395002;19;20002;-74
2022/12/09 06:42:17;;;;;;;19.92;8.38;;;;;;;;;;7389339;19;20009;-73
2022/12/09 06:44:51;;;;;;;17.40;7.90;;;;;;;;;;7397228;19;20009;-76
2022/12/09 06:47:17;;;;;;;18.50;8.63;;;;;;;;;;7396463;19;20005;-74
2022/12/09 06:49:42;;;;;;;18.05;9.05;;;;;;;;;;7393639;19;20341;-73
2022/12/09 06:52:07;;;;;;;22.80;9.07;;;;;;;;;;7387427;19;20482;-73
2022/12/09 06:54:33;;;;;;;20.65;8.57;;;;;;;;;;7384227;19;20007;-71
2022/12/09 06:56:59;;;;;;;23.55;9.70;;;;;;;;;;7389138;19;20022;-73
2022/12/09 06:59:24;;;;;;;23.15;9.95;;;;;;;;;;7390220;19;20002;-73
2022/12/09 07:01:49;;;;;;;21.08;9.27;;;;;;;;;;7392762;19;20460;-74
2022/12/09 07:04:15;;;;;;;25.25;10.18;;;;;;;;;;7359492;19;20013;-73
2022/12/09 07:06:43;;;;;;;23.60;10.18;;;;;;;;;;7390690;19;19998;-73
2022/12/09 07:09:11;;;;;;;20.25;10.60;;;;;;;;;;7389558;19;20074;-74
2022/12/09 07:11:37;;;;;;;26.42;11.15;;;;;;;;;;7391121;19;20003;-73
2022/12/09 07:14:03;;;;;;;20.85;8.38;;;;;;;;;;7392665;19;20010;-69
2022/12/09 07:16:29;;;;;;;19.85;8.73;;;;;;;;;;7393035;19;20007;-70
2022/12/09 07:18:54;;;;;;;19.17;9.15;;;;;;;;;;7390106;19;20006;-69
2022/12/09 07:21:21;;;;;;;21.45;9.90;;;;;;;;;;7390662;19;20024;-69
2022/12/09 07:23:47;;;;;;;21.75;10.18;;;;;;;;;;7388667;19;20413;-69
2022/12/09 07:26:12;;;;;;;20.63;10.43;;;;;;;;;;7389085;19;20015;-70
2022/12/09 07:28:41;;;;;;;21.88;10.43;;;;;;;;;;7366396;19;20006;-69
2022/12/09 07:31:16;;;;;;;21.60;9.65;;;;;;;;;;7389044;19;20003;-69
2022/12/09 07:33:41;;;;;;;20.23;8.95;;;;;;;;;;7391317;19;20439;-70
2022/12/09 07:36:07;;;;;;;18.65;8.38;;;;;;;;;;7392547;19;20014;-69
2022/12/09 07:38:32;;;;;;;23.42;10.63;;;;;;;;;;7393197;19;20215;-70
2022/12/09 07:41:04;;;;;;;24.17;10.68;;;;;;;;;;7392891;19;20584;-69
2022/12/09 07:43:32;;;;;;;26.33;12.38;;;;;;;;;;7390322;19;20006;-70
2022/12/09 07:46:06;;;;;;;25.77;10.35;;;;;;;;;;7390889;19;20078;-69
2022/12/09 07:48:32;;;;;;;21.88;9.73;;;;;;;;;;7393264;19;20006;-70
2022/12/09 07:51:01;;;;;;;24.92;9.18;;;;;;;;;;7389610;19;20598;-69
2022/12/09 07:53:27;;;;;;;18.58;8.75;;;;;;;;;;7390321;19;20019;-69
2022/12/09 07:55:52;;;;;;;25.90;10.25;;;;;;;;;;7392050;19;20036;-68
2022/12/09 07:58:17;;;;;;;25.95;10.95;;;;;;;;;;7390321;19;20002;-69
2022/12/09 08:00:43;;;;;;;23.30;9.27;;;;;;;;;;7388273;19;19999;-68
2022/12/09 08:03:11;;;;;;;23.65;9.65;;;;;;;;;;7391072;19;20046;-68
2022/12/09 08:05:36;;;;;;;20.80;9.52;;;;;;;;;;7389732;19;20043;-69
2022/12/09 08:08:01;;;;;;;20.77;9.40;;;;;;;;;;7387543;19;19990;-70
2022/12/09 08:10:27;;;;;;;15.90;6.57;;;;;;;;;;7388716;19;19997;-68
2022/12/09 08:12:52;;;;;;;19.73;7.65;;;;;;;;;;7391699;19;19995;-69
2022/12/09 08:15:18;;;;;;;15.00;6.78;;;;;;;;;;7391967;19;20075;-70
2022/12/09 08:17:44;;;;;;;14.20;8.45;;;;;;;;;;7388401;19;20002;-68
2022/12/09 08:20:10;;;;;;;19.10;6.47;;;;;;;;;;7389650;19;20398;-69
2022/12/09 08:22:36;;;;;;;13.88;6.93;;;;;;;;;;7389453;19;19999;-69
2022/12/09 08:25:02;;;;;;;17.33;7.28;;;;;;;;;;7391848;19;20074;-69
2022/12/09 08:27:28;;;;;;;12.05;7.00;;;;;;;;;;7389433;19;19994;-68
2022/12/09 08:29:53;;;;;;;14.95;7.68;;;;;;;;;;7389683;19;20002;-68
2022/12/09 08:32:18;;;;;;;15.82;7.32;;;;;;;;;;7389993;19;19991;-68
2022/12/09 08:34:44;;;;;;;21.17;7.43;;;;;;;;;;7390117;19;19999;-69
2022/12/09 08:37:09;;;;;;;15.27;6.97;;;;;;;;;;7390007;19;20006;-69
2022/12/09 08:39:35;;;;;;;19.40;7.57;;;;;;;;;;7388979;19;20006;-69
2022/12/09 08:42:00;;;;;;;18.90;8.75;;;;;;;;;;7382804;19;19999;-74
2022/12/09 08:44:25;;;;;;;15.10;6.90;;;;;;;;;;7388872;19;20480;-74
2022/12/09 08:46:51;;;;;;;17.40;7.50;;;;;;;;;;7387389;19;20605;-76
2022/12/09 08:49:20;;;;;;;20.88;8.75;;;;;;;;;;7391807;19;20032;-73
2022/12/09 08:51:50;;;;;;;15.18;6.90;;;;;;;;;;7392178;19;19995;-76
2022/12/09 08:54:16;;;;;;;16.90;9.43;;;;;;;;;;7383860;19;20041;-76
2022/12/09 08:56:50;;;;;;;14.82;7.10;;;;;;;;;;7389589;19;20496;-76
2022/12/09 08:59:16;;;;;;;14.30;7.72;;;;;;;;;;7387569;19;20007;-76
2022/12/09 09:01:42;;;;;;;17.70;7.88;;;;;;;;;;7389826;19;20010;-75
2022/12/09 09:04:09;;;;;;;21.75;7.72;;;;;;;;;;7388404;19;20016;-75
2022/12/09 09:06:36;;;;;;;14.18;7.22;;;;;;;;;;7389116;19;20022;-76
2022/12/09 09:09:03;;;;;;;14.18;7.15;;;;;;;;;;7386952;19;20018;-75
2022/12/09 09:11:28;;;;;;;17.33;7.78;;;;;;;;;;7387649;19;20006;-76
2022/12/09 09:14:03;;;;;;;16.02;7.57;;;;;;;;;;7388661;19;20001;-69
2022/12/09 09:16:28;;;;;;;19.92;8.77;;;;;;;;;;7386314;19;20441;-70
2022/12/09 09:18:54;;;;;;;18.90;9.05;;;;;;;;;;7391162;19;20051;-69
2022/12/09 09:21:22;;;;;;;18.15;8.55;;;;;;;;;;7393763;19;20007;-69
2022/12/09 09:23:48;;;;;;;16.27;7.82;;;;;;;;;;7389852;19;20002;-70
2022/12/09 09:26:24;;;;;;;14.43;7.15;;;;;;;;;;7390522;19;20019;-70
2022/12/09 09:28:50;;;;;;;16.08;7.53;;;;;;;;;;7385178;19;20040;-69
2022/12/09 09:31:18;;;;;;;20.67;7.50;;;;;;;;;;7388462;19;20010;-69
2022/12/09 09:33:44;;;;;;;17.25;8.30;;;;;;;;;;7390396;19;20472;-69
2022/12/09 09:36:16;;;;;;;14.63;7.60;;;;;;;;;;7396301;19;20011;-70
2022/12/09 09:38:41;;;;;;;20.17;7.40;;;;;;;;;;7396586;19;20010;-68
2022/12/09 09:41:45;;;;;;;19.35;8.88;;;;;;;;;;7395772;19;20571;-69
2022/12/09 09:44:25;;;;;;;16.05;8.25;;;;;;;;;;7392636;19;20070;-69
2022/12/09 09:46:52;;;;;;;18.80;8.52;;;;;;;;;;7395194;19;20460;-70
2022/12/09 09:49:36;;;;;;;32.08;8.82;;;;;;;;;;7396926;19;20340;-69
2022/12/09 09:52:15;;;;;;;19.23;8.38;;;;;;;;;;7396715;19;19998;-69
2022/12/09 09:54:40;;;;;;;24.20;8.02;;;;;;;;;;7395701;19;20511;-69
2022/12/09 09:57:24;;;;;;;16.52;8.07;;;;;;;;;;7394943;19;20000;-69
2022/12/09 10:00:11;;;;;;;12.80;7.32;;;;;;;;;;7394590;19;20016;-69
2022/12/09 10:03:12;;;;;;;17.45;7.85;;;;;;;;;;7393412;19;20012;-70
2022/12/09 10:06:08;;;;;;;18.52;8.13;;;;;;;;;;7394486;19;20019;-69
2022/12/09 10:08:48;;;;;;;13.70;6.80;;;;;;;;;;7390119;19;20050;-69
2022/12/09 10:11:22;;;;;;;17.05;6.78;;;;;;;;;;7396882;19;20007;-69
2022/12/09 10:14:23;;;;;;;14.48;7.18;;;;;;;;;;7393126;19;20023;-69
2022/12/09 10:16:57;;;;;;;15.80;7.30;;;;;;;;;;7390685;19;20006;-69
2022/12/09 10:19:32;;;;;;;14.45;8.05;;;;;;;;;;7393355;19;20054;-69
2022/12/09 10:21:58;;;;;;;17.98;8.15;;;;;;;;;;7390675;19;19995;-69
2022/12/09 10:24:32;;;;;;;13.48;6.43;;;;;;;;;;7394329;19;20003;-69
2022/12/09 10:27:07;;;;;;;16.73;7.30;;;;;;;;;;7393033;19;20014;-69
2022/12/09 10:29:48;;;;;;;16.35;6.47;;;;;;;;;;7392184;19;20003;-69
2022/12/09 10:32:17;;;;;;;;;;;;;;;;;;7394396;19;20086;-68
2022/12/09 10:34:42;;;;;;;16.17;6.47;;;;;;;;;;7394356;19;19921;-69
2022/12/09 10:37:24;;;;;;;22.55;7.57;;;;;;;;;;7394152;19;20007;-69
2022/12/09 10:39:58;;;;;;;11.35;6.75;;;;;;;;;;7392844;19;20003;-70
2022/12/09 10:45:09;;;;;;;15.00;6.30;;;;;;;;;;7396005;19;20470;-69
2022/12/09 10:47:35;;;;;;;20.63;6.60;;;;;;;;;;7390629;19;20014;-69
2022/12/09 10:50:02;;;;;;;22.75;8.15;;;;;;;;;;7392766;19;20333;-69
2022/12/09 10:52:34;;;;;;;12.80;6.80;;;;;;;;;;7392123;19;19995;-69
2022/12/09 10:55:01;;;;;;;18.23;7.40;;;;;;;;;;7394213;19;20488;-69
2022/12/09 10:57:28;;;;;;;15.98;7.35;;;;;;;;;;7389831;19;20003;-69
2022/12/09 11:00:20;;;;;;;16.80;7.85;;;;;;;;;;7390957;19;20013;-68
2022/12/09 11:02:51;;;;;;;15.30;6.95;;;;;;;;;;7390614;19;20026;-69
2022/12/09 11:05:27;;;;;;;14.35;5.47;;;;;;;;;;7394566;19;20018;-70
2022/12/09 11:07:54;;;;;;;14.20;5.43;;;;;;;;;;7390447;19;19998;-68
2022/12/09 11:10:23;;;;;;;14.50;7.25;;;;;;;;;;7392745;19;19990;-68
2022/12/09 11:12:54;;;;;;;18.13;9.05;;;;;;;;;;7391028;19;20002;-70
2022/12/09 11:15:41;;;;;;;16.10;8.60;;;;;;;;;;7393605;19;20006;-69
2022/12/09 11:18:19;;;;;;;16.55;8.48;;;;;;;;;;7389733;19;19999;-70
2022/12/09 11:21:04;;;;;;;16.23;8.98;;;;;;;;;;7391180;19;19995;-70
2022/12/09 11:23:30;;;;;;;20.02;8.25;;;;;;;;;;7390075;19;20077;-70
2022/12/09 11:26:01;;;;;;;17.25;8.32;;;;;;;;;;7392851;19;20009;-69
2022/12/09 11:28:38;;;;;;;16.02;8.15;;;;;;;;;;7392107;19;20006;-68
2022/12/09 11:31:16;;;;;;;14.90;8.25;;;;;;;;;;7393378;19;19999;-69
2022/12/09 11:33:55;;;;;;;19.13;8.68;;;;;;;;;;7390249;19;20685;-69
2022/12/09 11:36:45;;;;;;;23.13;9.65;;;;;;;;;;7389982;19;19999;-69
2022/12/09 11:39:30;;;;;;;18.85;8.60;;;;;;;;;;7390044;19;20103;-69
2022/12/09 11:42:25;;;;;;;19.13;8.82;;;;;;;;;;7390732;19;20010;-69
2022/12/09 11:44:55;;;;;;;15.05;7.97;;;;;;;;;;7390849;19;20010;-69
2022/12/09 11:47:29;;;;;;;17.40;8.77;;;;;;;;;;7392311;19;20003;-69
2022/12/09 11:50:29;;;;;;;14.07;7.85;;;;;;;;;;7391561;19;20005;-68
2022/12/09 11:53:10;;;;;;;17.67;8.98;;;;;;;;;;7391607;19;19994;-69
2022/12/09 11:55:57;;;;;;;20.75;9.00;;;;;;;;;;7385811;19;20046;-71
2022/12/09 11:58:34;;;;;;;17.23;7.72;;;;;;;;;;7392239;19;20003;-72
2022/12/09 12:01:04;;;;;;;12.63;6.55;;;;;;;;;;7391414;19;20014;-71
2022/12/09 12:03:40;;;;;;;16.98;7.18;;;;;;;;;;7389814;19;20616;-73
2022/12/09 12:06:28;;;;;;;15.15;7.45;;;;;;;;;;7392087;19;20471;-76
2022/12/09 12:09:03;;;;;;;19.48;9.07;;;;;;;;;;7391985;19;20031;-76
2022/12/09 12:11:40;;;;;;;14.65;7.70;;;;;;;;;;7390551;19;20006;-73
2022/12/09 12:14:15;;;;;;;17.25;7.75;;;;;;;;;;7392319;19;20496;-69
2022/12/09 12:16:49;;;;;;;15.75;7.07;;;;;;;;;;7387591;19;20010;-70
2022/12/09 12:19:25;;;;;;;14.18;5.93;;;;;;;;;;7393658;19;20031;-71
2022/12/09 12:22:19;;;;;;;14.30;7.05;;;;;;;;;;7389149;19;19999;-70
2022/12/09 12:25:22;;;;;;;17.88;7.15;;;;;;;;;;7393302;19;20041;-71
2022/12/09 12:28:05;;;;;;;12.85;7.05;;;;;;;;;;7391606;19;20099;-68
2022/12/09 12:30:45;;;;;;;14.93;6.88;;;;;;;;;;7394215;19;20082;-69
2022/12/09 12:33:31;;;;;;;15.57;7.32;;;;;;;;;;7393457;19;20002;-69
2022/12/09 12:36:11;;;;;;;15.50;6.85;;;;;;;;;;7392899;19;19999;-69
2022/12/09 12:38:45;;;;;;;16.38;6.78;;;;;;;;;;7393097;19;19994;-68
2022/12/09 12:41:20;;;;;;;13.93;7.05;;;;;;;;;;7394601;19;20014;-70
2022/12/09 12:46:54;;;;;;;14.45;5.68;;;;;;;;;;7392308;19;19998;-69
2022/12/09 12:49:47;;;;;;;11.88;5.72;;;;;;;;;;7391261;19;20010;-69
2022/12/09 12:52:28;;;;;;;13.23;6.95;;;;;;;;;;7390393;19;19999;-69
2022/12/09 12:55:12;;;;;;;15.55;6.82;;;;;;;;;;7393442;19;20019;-69
2022/12/09 12:58:00;;;;;;;16.67;7.80;;;;;;;;;;7392158;19;20009;-69
2022/12/09 13:00:49;;;;;;;16.08;6.53;;;;;;;;;;7399188;19;20001;-69
2022/12/09 13:03:26;;;;;;;12.23;5.75;;;;;;;;;;7390888;19;20018;-69
2022/12/09 13:05:54;;;;;;;14.88;7.03;;;;;;;;;;7394999;19;20013;-70
2022/12/09 13:08:45;;;;;;;14.55;6.68;;;;;;;;;;7397563;19;20003;-68
2022/12/09 13:11:50;;;;;;;19.13;7.73;;;;;;;;;;7397283;19;20006;-68
2022/12/09 13:14:23;;;;;;;16.67;7.43;;;;;;;;;;7395745;19;20243;-69
2022/12/09 13:16:50;;;;;;;15.68;7.18;;;;;;;;;;7396424;19;20400;-68
2022/12/09 13:19:25;;;;;;;15.93;5.97;;;;;;;;;;7397437;19;20023;-69
2022/12/09 13:21:51;;;;;;;16.73;6.30;;;;;;;;;;7396310;19;20005;-69
2022/12/09 13:24:29;;;;;;;14.70;7.00;;;;;;;;;;7397128;19;19999;-69
2022/12/09 13:27:04;;;;;;;11.65;6.43;;;;;;;;;;7396207;19;20495;-69
2022/12/09 13:29:35;;;;;;;14.98;7.00;;;;;;;;;;7399593;19;20357;-69
2022/12/09 13:32:04;;;;;;;16.17;6.93;;;;;;;;;;7396053;19;20010;-69
2022/12/09 13:34:48;;;;;;;19.30;7.45;;;;;;;;;;7396558;19;20002;-68
2022/12/09 13:37:30;;;;;;;15.45;7.13;;;;;;;;;;7393940;19;20023;-69
2022/12/09 13:39:59;;;;;;;14.32;7.28;;;;;;;;;;7396680;19;20348;-68
2022/12/09 13:45:24;;;;;;;17.75;8.02;;;;;;;;;;7396182;19;20474;-69
2022/12/09 13:47:52;;;;;;;;;;;;;;;;;;7393140;19;20006;-69
2022/12/09 13:50:40;;;;;;;16.83;6.82;;;;;;;;;;7396283;19;19926;-69
2022/12/09 13:53:33;;;;;;;23.20;7.63;;;;;;;;;;7395763;19;20003;-68
2022/12/09 13:56:05;;;;;;;19.05;7.55;;;;;;;;;;7394103;19;20002;-70
2022/12/09 13:58:52;;;;;;;16.83;6.82;;;;;;;;;;7396606;19;19998;-70
2022/12/09 14:01:23;;;;;;;13.23;6.30;;;;;;;;;;7393568;19;19998;-69
2022/12/09 14:03:59;;;;;;;15.13;6.60;;;;;;;;;;7395778;19;20054;-70
2022/12/09 14:06:43;;;;;;;12.88;6.57;;;;;;;;;;7394819;19;19995;-69
2022/12/09 14:09:23;;;;;;;10.55;5.60;;;;;;;;;;7396145;19;20010;-69
2022/12/09 14:11:53;;;;;;;13.32;6.35;;;;;;;;;;7395741;19;20068;-70
2022/12/09 14:14:22;;;;;;;12.00;5.55;;;;;;;;;;7394997;19;20016;-70
2022/12/09 14:16:48;;;;;;;11.63;5.88;;;;;;;;;;7394528;19;20496;-69
2022/12/09 14:19:22;;;;;;;15.30;7.07;;;;;;;;;;7395367;19;19991;-69
2022/12/09 14:22:17;;;;;;;14.40;5.88;;;;;;;;;;7394681;19;19990;-70
2022/12/09 14:24:43;;;;;;;10.35;4.63;;;;;;;;;;7394414;19;20118;-69
2022/12/09 14:27:14;;;;;;;13.10;6.13;;;;;;;;;;7394059;19;20464;-70
2022/12/09 14:29:44;;;;;;;12.23;6.10;;;;;;;;;;7395279;19;20006;-69
2022/12/09 14:32:24;;;;;;;12.55;6.57;;;;;;;;;;7395193;19;20453;-69
2022/12/09 14:35:12;;;;;;;13.48;6.10;;;;;;;;;;7394488;19;19998;-69
2022/12/09 14:38:18;;;;;;;17.00;6.63;;;;;;;;;;7391370;19;20473;-69
2022/12/09 14:40:52;;;;;;;13.00;6.22;;;;;;;;;;7394937;19;19999;-69
2022/12/09 14:43:45;;;;;;;16.83;6.20;;;;;;;;;;7391991;19;20006;-69
2022/12/09 14:46:24;;;;;;;9.60;4.35;;;;;;;;;;7394213;19;20062;-69
2022/12/09 14:48:58;;;;;;;13.18;5.63;;;;;;;;;;7394584;19;20111;-68
2022/12/09 14:51:31;;;;;;;16.67;6.97;;;;;;;;;;7394353;19;20381;-68
2022/12/09 14:54:14;;;;;;;17.23;6.97;;;;;;;;;;7393442;19;20188;-68
2022/12/09 14:56:45;;;;;;;13.55;6.60;;;;;;;;;;7393997;19;20001;-68
2022/12/09 14:59:18;;;;;;;14.97;5.80;;;;;;;;;;7394444;19;20025;-69